sensor_id;sensor_type;location;lat;lon;timestamp;pressure;altitude;pressure_sealevel;temperature;humidity
19128;BME280;9696;53.686;10.094;2022-09-16T00:01:33;100279.69;;;9.84;100.00
19128;BME280;9696;53.686;10.094;2022-09-16T00:04:02;100278.31;;;9.80;100.00
19128;BME280;9696;53.686;10.094;2022-09-16T00:06:32;100270.19;;;9.83;100.00
19128;BME280;9696;53.686;10.094;2022-09-16T00:09:01;100285.34;;;9.80;100.00
19128;BME280;9696;53.686;10.094;2022-09-16T00:11:31;100287.28;;;9.78;100.00
19128;BME280;9696;53.686;10.094;2022-09-16T00:14:03;100281.22;;;9.77;100.00
19128;BME280;9696;53.686;10.094;2022-09-16T00:16:32;100282.19;;;9.76;100.00
19128;BME280;9696;53.686;10.094;2022-09-16T00:19:02;100288.53;;;9.74;100.00
19128;BME280;9696;53.686;10.094;2022-09-16T00:21:31;100293.88;;;9.72;100.00
19128;BME280;9696;53.686;10.094;2022-09-16T00:24:00;100286.34;;;9.79;100.00
19128;BME280;9696;53.686;10.094;2022-09-16T00:26:29;100279.31;;;9.79;100.00
19128;BME280;9696;53.686;10.094;2022-09-16T00:28:58;100283.44;;;9.82;100.00
19128;BME280;9696;53.686;10.094;2022-09-16T00:31:29;100284.09;;;9.93;100.00
19128;BME280;9696;53.686;10.094;2022-09-16T00:33:58;100280.66;;;9.93;100.00
19128;BME280;9696;53.686;10.094;2022-09-16T00:36:27;100277.50;;;9.99;100.00
19128;BME280;9696;53.686;10.094;2022-09-16T00:38:57;100282.28;;;10.04;100.00
19128;BME280;9696;53.686;10.094;2022-09-16T00:41:27;100279.53;;;10.05;100.00
19128;BME280;9696;53.686;10.094;2022-09-16T00:44:01;100287.09;;;10.08;100.00
19128;BME280;9696;53.686;10.094;2022-09-16T00:46:36;100298.00;;;10.13;100.00
19128;BME280;9696;53.686;10.094;2022-09-16T00:49:11;100303.28;;;10.23;100.00
19128;BME280;9696;53.686;10.094;2022-09-16T00:51:41;100300.38;;;10.16;100.00
19128;BME280;9696;53.686;10.094;2022-09-16T00:54:12;100294.16;;;10.17;100.00
19128;BME280;9696;53.686;10.094;2022-09-16T00:56:45;100289.75;;;10.18;100.00
19128;BME280;9696;53.686;10.094;2022-09-16T00:59:17;100291.44;;;10.19;100.00
19128;BME280;9696;53.686;10.094;2022-09-16T01:01:48;100294.44;;;10.14;100.00
19128;BME280;9696;53.686;10.094;2022-09-16T01:04:21;100302.16;;;10.16;100.00
19128;BME280;9696;53.686;10.094;2022-09-16T01:06:52;100302.72;;;10.10;100.00
19128;BME280;9696;53.686;10.094;2022-09-16T01:09:23;100303.94;;;10.06;100.00
19128;BME280;9696;53.686;10.094;2022-09-16T01:11:53;100299.00;;;10.03;100.00
19128;BME280;9696;53.686;10.094;2022-09-16T01:14:23;100300.91;;;10.01;100.00
19128;BME280;9696;53.686;10.094;2022-09-16T01:17:20;100302.69;;;10.00;100.00
19128;BME280;9696;53.686;10.094;2022-09-16T01:23:10;100311.94;;;10.04;100.00
19128;BME280;9696;53.686;10.094;2022-09-16T01:25:57;100312.94;;;10.03;100.00
19128;BME280;9696;53.686;10.094;2022-09-16T01:28:56;100297.75;;;9.97;100.00
19128;BME280;9696;53.686;10.094;2022-09-16T01:31:34;100299.41;;;9.88;100.00
19128;BME280;9696;53.686;10.094;2022-09-16T01:34:16;100296.53;;;9.91;100.00
19128;BME280;9696;53.686;10.094;2022-09-16T01:36:53;100296.78;;;9.98;100.00
19128;BME280;9696;53.686;10.094;2022-09-16T01:39:30;100296.25;;;9.94;100.00
19128;BME280;9696;53.686;10.094;2022-09-16T01:42:11;100297.63;;;9.89;100.00
19128;BME280;9696;53.686;10.094;2022-09-16T01:44:49;100295.81;;;9.80;100.00
19128;BME280;9696;53.686;10.094;2022-09-16T01:47:28;100296.81;;;9.79;100.00
19128;BME280;9696;53.686;10.094;2022-09-16T01:50:03;100285.19;;;9.72;100.00
19128;BME280;9696;53.686;10.094;2022-09-16T01:52:41;100282.19;;;9.67;100.00
19128;BME280;9696;53.686;10.094;2022-09-16T01:55:17;100272.81;;;9.64;100.00
19128;BME280;9696;53.686;10.094;2022-09-16T01:57:54;100272.97;;;9.63;100.00
19128;BME280;9696;53.686;10.094;2022-09-16T02:00:24;100280.94;;;9.61;100.00
19128;BME280;9696;53.686;10.094;2022-09-16T02:02:57;100279.28;;;9.60;100.00
19128;BME280;9696;53.686;10.094;2022-09-16T02:05:32;100285.50;;;9.69;100.00
19128;BME280;9696;53.686;10.094;2022-09-16T02:08:05;100282.31;;;9.65;100.00
19128;BME280;9696;53.686;10.094;2022-09-16T02:10:39;100277.78;;;9.67;100.00
19128;BME280;9696;53.686;10.094;2022-09-16T02:13:13;100268.28;;;9.66;100.00
19128;BME280;9696;53.686;10.094;2022-09-16T02:15:47;100276.25;;;9.65;100.00
19128;BME280;9696;53.686;10.094;2022-09-16T02:18:21;100269.22;;;9.65;100.00
19128;BME280;9696;53.686;10.094;2022-09-16T02:20:53;100271.28;;;9.62;100.00
19128;BME280;9696;53.686;10.094;2022-09-16T02:23:28;100270.06;;;9.66;100.00
19128;BME280;9696;53.686;10.094;2022-09-16T02:26:01;100275.72;;;9.71;100.00
19128;BME280;9696;53.686;10.094;2022-09-16T02:28:35;100294.44;;;9.76;100.00
19128;BME280;9696;53.686;10.094;2022-09-16T02:31:08;100287.41;;;9.76;100.00
19128;BME280;9696;53.686;10.094;2022-09-16T02:33:46;100284.13;;;9.74;100.00
19128;BME280;9696;53.686;10.094;2022-09-16T02:36:19;100266.63;;;9.75;100.00
19128;BME280;9696;53.686;10.094;2022-09-16T02:38:54;100260.84;;;9.71;100.00
19128;BME280;9696;53.686;10.094;2022-09-16T02:41:24;100255.72;;;9.70;100.00
19128;BME280;9696;53.686;10.094;2022-09-16T02:43:53;100252.56;;;9.66;100.00
19128;BME280;9696;53.686;10.094;2022-09-16T02:46:28;100259.16;;;9.70;100.00
19128;BME280;9696;53.686;10.094;2022-09-16T02:49:08;100261.38;;;9.65;100.00
19128;BME280;9696;53.686;10.094;2022-09-16T02:51:43;100254.63;;;9.63;100.00
19128;BME280;9696;53.686;10.094;2022-09-16T02:54:22;100258.19;;;9.62;100.00
19128;BME280;9696;53.686;10.094;2022-09-16T02:56:55;100251.06;;;9.64;100.00
19128;BME280;9696;53.686;10.094;2022-09-16T02:59:25;100247.72;;;9.62;100.00
19128;BME280;9696;53.686;10.094;2022-09-16T03:01:54;100250.22;;;9.63;100.00
19128;BME280;9696;53.686;10.094;2022-09-16T03:04:25;100248.44;;;9.64;100.00
19128;BME280;9696;53.686;10.094;2022-09-16T03:06:54;100261.53;;;9.64;100.00
19128;BME280;9696;53.686;10.094;2022-09-16T03:09:23;100257.91;;;9.65;100.00
19128;BME280;9696;53.686;10.094;2022-09-16T03:12:15;100281.06;;;9.69;100.00
19128;BME280;9696;53.686;10.094;2022-09-16T03:15:01;100289.91;;;9.78;100.00
19128;BME280;9696;53.686;10.094;2022-09-16T03:17:45;100279.16;;;9.71;100.00
19128;BME280;9696;53.686;10.094;2022-09-16T03:20:21;100257.22;;;9.72;100.00
19128;BME280;9696;53.686;10.094;2022-09-16T03:22:59;100238.22;;;9.70;100.00
19128;BME280;9696;53.686;10.094;2022-09-16T03:25:41;100240.56;;;9.73;100.00
19128;BME280;9696;53.686;10.094;2022-09-16T03:28:17;100236.13;;;9.64;100.00
19128;BME280;9696;53.686;10.094;2022-09-16T03:30:52;100242.63;;;9.60;100.00
19128;BME280;9696;53.686;10.094;2022-09-16T03:33:28;100239.59;;;9.55;100.00
19128;BME280;9696;53.686;10.094;2022-09-16T03:36:04;100233.81;;;9.52;100.00
19128;BME280;9696;53.686;10.094;2022-09-16T03:38:34;100230.66;;;9.48;100.00
19128;BME280;9696;53.686;10.094;2022-09-16T03:41:06;100230.66;;;9.48;100.00
19128;BME280;9696;53.686;10.094;2022-09-16T03:43:36;100221.97;;;9.48;100.00
19128;BME280;9696;53.686;10.094;2022-09-16T03:46:14;100236.16;;;9.45;100.00
19128;BME280;9696;53.686;10.094;2022-09-16T03:48:43;100228.84;;;9.39;100.00
19128;BME280;9696;53.686;10.094;2022-09-16T03:51:14;100231.59;;;9.37;100.00
19128;BME280;9696;53.686;10.094;2022-09-16T03:53:43;100228.84;;;9.39;100.00
19128;BME280;9696;53.686;10.094;2022-09-16T03:56:12;100231.31;;;9.40;100.00
19128;BME280;9696;53.686;10.094;2022-09-16T03:58:42;100238.09;;;9.43;100.00
19128;BME280;9696;53.686;10.094;2022-09-16T04:01:11;100239.06;;;9.42;100.00
19128;BME280;9696;53.686;10.094;2022-09-16T04:03:41;100245.13;;;9.42;100.00
19128;BME280;9696;53.686;10.094;2022-09-16T04:06:10;100250.63;;;9.49;100.00
19128;BME280;9696;53.686;10.094;2022-09-16T04:08:40;100242.09;;;9.47;100.00
19128;BME280;9696;53.686;10.094;2022-09-16T04:11:11;100241.81;;;9.50;100.00
19128;BME280;9696;53.686;10.094;2022-09-16T04:13:40;100232.44;;;9.48;100.00
19128;BME280;9696;53.686;10.094;2022-09-16T04:16:09;100232.44;;;9.48;100.00
19128;BME280;9696;53.686;10.094;2022-09-16T04:18:38;100233.28;;;9.48;100.00
19128;BME280;9696;53.686;10.094;2022-09-16T04:21:08;100229.00;;;9.47;100.00
19128;BME280;9696;53.686;10.094;2022-09-16T04:23:37;100231.31;;;9.40;100.00
19128;BME280;9696;53.686;10.094;2022-09-16T04:26:08;100237.25;;;9.42;100.00
19128;BME280;9696;53.686;10.094;2022-09-16T04:28:38;100228.97;;;9.37;100.00
19128;BME280;9696;53.686;10.094;2022-09-16T04:31:10;100228.72;;;9.31;100.00
19128;BME280;9696;53.686;10.094;2022-09-16T04:33:39;100230.91;;;9.26;100.00
19128;BME280;9696;53.686;10.094;2022-09-16T04:36:10;100228.56;;;9.23;100.00
19128;BME280;9696;53.686;10.094;2022-09-16T04:38:41;100218.09;;;9.23;100.00
19128;BME280;9696;53.686;10.094;2022-09-16T04:41:15;100223.06;;;9.26;100.00
19128;BME280;9696;53.686;10.094;2022-09-16T04:43:44;100227.47;;;9.25;100.00
19128;BME280;9696;53.686;10.094;2022-09-16T04:46:13;100220.59;;;9.24;100.00
19128;BME280;9696;53.686;10.094;2022-09-16T04:48:42;100220.84;;;9.21;100.00
19128;BME280;9696;53.686;10.094;2022-09-16T04:51:14;100223.22;;;9.24;100.00
19128;BME280;9696;53.686;10.094;2022-09-16T04:53:44;100222.50;;;9.22;100.00
19128;BME280;9696;53.686;10.094;2022-09-16T04:56:17;100224.03;;;9.15;100.00
19128;BME280;9696;53.686;10.094;2022-09-16T04:58:48;100226.75;;;9.14;100.00
19128;BME280;9696;53.686;10.094;2022-09-16T05:01:19;100218.78;;;9.15;100.00
19128;BME280;9696;53.686;10.094;2022-09-16T05:03:50;100230.75;;;9.18;100.00
19128;BME280;9696;53.686;10.094;2022-09-16T05:06:21;100228.69;;;9.21;100.00
19128;BME280;9696;53.686;10.094;2022-09-16T05:08:52;100225.81;;;9.34;100.00
19128;BME280;9696;53.686;10.094;2022-09-16T05:11:24;100199.78;;;9.32;100.00
19128;BME280;9696;53.686;10.094;2022-09-16T05:13:53;100210.25;;;9.32;100.00
19128;BME280;9696;53.686;10.094;2022-09-16T05:16:23;100211.38;;;9.39;100.00
19128;BME280;9696;53.686;10.094;2022-09-16T05:18:54;100201.97;;;9.37;100.00
19128;BME280;9696;53.686;10.094;2022-09-16T05:21:26;100206.25;;;9.38;100.00
19128;BME280;9696;53.686;10.094;2022-09-16T05:23:59;100214.81;;;9.40;100.00
19128;BME280;9696;53.686;10.094;2022-09-16T05:26:31;100197.16;;;9.42;100.00
19128;BME280;9696;53.686;10.094;2022-09-16T05:29:04;100199.66;;;9.43;100.00
19128;BME280;9696;53.686;10.094;2022-09-16T05:31:37;100199.38;;;9.46;100.00
19128;BME280;9696;53.686;10.094;2022-09-16T05:34:11;100199.38;;;9.46;100.00
19128;BME280;9696;53.686;10.094;2022-09-16T05:36:42;100193.03;;;9.49;100.00
19128;BME280;9696;53.686;10.094;2022-09-16T05:39:15;100194.69;;;9.50;100.00
19128;BME280;9696;53.686;10.094;2022-09-16T05:41:55;100187.13;;;9.47;100.00
19128;BME280;9696;53.686;10.094;2022-09-16T05:44:27;100195.09;;;9.45;100.00
19128;BME280;9696;53.686;10.094;2022-09-16T05:46:58;100193.84;;;9.50;100.00
19128;BME280;9696;53.686;10.094;2022-09-16T05:49:28;100200.34;;;9.55;100.00
19128;BME280;9696;53.686;10.094;2022-09-16T05:51:58;100196.72;;;9.56;100.00
19128;BME280;9696;53.686;10.094;2022-09-16T05:54:29;100209.28;;;9.62;100.00
19128;BME280;9696;53.686;10.094;2022-09-16T05:57:00;100204.88;;;9.63;100.00
19128;BME280;9696;53.686;10.094;2022-09-16T05:59:34;100205.00;;;9.61;100.00
19128;BME280;9696;53.686;10.094;2022-09-16T06:02:05;100200.31;;;9.65;100.00
19128;BME280;9696;53.686;10.094;2022-09-16T06:04:34;100198.41;;;9.67;100.00
19128;BME280;9696;53.686;10.094;2022-09-16T06:07:03;100197.16;;;9.61;100.00
19128;BME280;9696;53.686;10.094;2022-09-16T06:09:33;100197.44;;;9.68;100.00
19128;BME280;9696;53.686;10.094;2022-09-16T06:12:05;100193.53;;;9.72;100.00
19128;BME280;9696;53.686;10.094;2022-09-16T06:14:34;100200.72;;;9.79;100.00
19128;BME280;9696;53.686;10.094;2022-09-16T06:17:03;100204.69;;;9.93;100.00
19128;BME280;9696;53.686;10.094;2022-09-16T06:19:32;100194.44;;;10.00;100.00
19128;BME280;9696;53.686;10.094;2022-09-16T06:22:02;100191.69;;;10.01;100.00
19128;BME280;9696;53.686;10.094;2022-09-16T06:24:31;100198.06;;;9.99;100.00
19128;BME280;9696;53.686;10.094;2022-09-16T06:27:00;100190.72;;;10.02;100.00
19128;BME280;9696;53.686;10.094;2022-09-16T06:29:30;100182.03;;;10.02;100.00
19128;BME280;9696;53.686;10.094;2022-09-16T06:31:59;100185.91;;;9.98;100.00
19128;BME280;9696;53.686;10.094;2022-09-16T06:34:29;100178.59;;;10.01;100.00
19128;BME280;9696;53.686;10.094;2022-09-16T06:36:58;100175.13;;;10.10;100.00
19128;BME280;9696;53.686;10.094;2022-09-16T06:39:27;100194.31;;;10.11;100.00
19128;BME280;9696;53.686;10.094;2022-09-16T06:41:56;100177.06;;;10.18;100.00
19128;BME280;9696;53.686;10.094;2022-09-16T06:44:41;100187.38;;;10.19;100.00
19128;BME280;9696;53.686;10.094;2022-09-16T06:47:10;100182.41;;;10.26;100.00
19128;BME280;9696;53.686;10.094;2022-09-16T06:49:39;100186.53;;;10.28;100.00
19128;BME280;9696;53.686;10.094;2022-09-16T06:52:08;100181.09;;;10.39;100.00
19128;BME280;9696;53.686;10.094;2022-09-16T06:54:38;100186.41;;;10.57;100.00
19128;BME280;9696;53.686;10.094;2022-09-16T06:57:07;100177.94;;;10.63;100.00
19128;BME280;9696;53.686;10.094;2022-09-16T06:59:40;100169.72;;;10.58;100.00
19128;BME280;9696;53.686;10.094;2022-09-16T07:02:10;100165.34;;;10.67;100.00
19128;BME280;9696;53.686;10.094;2022-09-16T07:04:39;100169.72;;;10.76;100.00
19128;BME280;9696;53.686;10.094;2022-09-16T07:07:08;100170.28;;;11.15;97.89
19128;BME280;9696;53.686;10.094;2022-09-16T07:09:38;100169.22;;;11.43;95.23
19128;BME280;9696;53.686;10.094;2022-09-16T07:12:07;100178.38;;;11.39;94.61
19128;BME280;9696;53.686;10.094;2022-09-16T07:14:36;100168.78;;;11.30;94.02
19128;BME280;9696;53.686;10.094;2022-09-16T07:17:07;100174.75;;;11.75;92.22
19128;BME280;9696;53.686;10.094;2022-09-16T07:19:36;100169.97;;;11.97;90.63
19128;BME280;9696;53.686;10.094;2022-09-16T07:22:05;100169.91;;;12.14;89.82
19128;BME280;9696;53.686;10.094;2022-09-16T07:24:34;100172.34;;;11.64;92.24
19128;BME280;9696;53.686;10.094;2022-09-16T07:30:14;100180.84;;;11.76;92.06
19128;BME280;9696;53.686;10.094;2022-09-16T07:32:44;100169.34;;;11.59;95.41
19128;BME280;9696;53.686;10.094;2022-09-16T07:35:14;100177.47;;;11.30;96.93
19128;BME280;9696;53.686;10.094;2022-09-16T07:37:43;100173.22;;;11.29;96.67
19128;BME280;9696;53.686;10.094;2022-09-16T07:40:12;100166.91;;;11.40;95.08
19128;BME280;9696;53.686;10.094;2022-09-16T07:42:41;100170.78;;;11.54;94.06
19128;BME280;9696;53.686;10.094;2022-09-16T07:45:10;100170.91;;;11.70;91.23
19128;BME280;9696;53.686;10.094;2022-09-16T07:47:39;100175.06;;;11.72;91.31
19128;BME280;9696;53.686;10.094;2022-09-16T07:50:10;100155.38;;;12.02;90.50
19128;BME280;9696;53.686;10.094;2022-09-16T07:52:39;100158.81;;;12.03;89.04
19128;BME280;9696;53.686;10.094;2022-09-16T07:55:08;100165.47;;;12.57;88.18
19128;BME280;9696;53.686;10.094;2022-09-16T07:57:39;100168.00;;;12.33;88.11
19128;BME280;9696;53.686;10.094;2022-09-16T08:00:09;100168.66;;;11.75;88.15
19128;BME280;9696;53.686;10.094;2022-09-16T08:02:38;100162.44;;;11.58;89.77
19128;BME280;9696;53.686;10.094;2022-09-16T08:05:09;100179.16;;;12.26;86.84
19128;BME280;9696;53.686;10.094;2022-09-16T08:07:39;100167.06;;;12.42;84.38
19128;BME280;9696;53.686;10.094;2022-09-16T08:10:09;100176.47;;;12.52;85.09
19128;BME280;9696;53.686;10.094;2022-09-16T08:12:38;100155.69;;;12.83;83.00
19128;BME280;9696;53.686;10.094;2022-09-16T08:15:08;100166.63;;;13.12;82.36
19128;BME280;9696;53.686;10.094;2022-09-16T08:17:37;100155.47;;;13.51;81.65
19128;BME280;9696;53.686;10.094;2022-09-16T08:20:07;100151.91;;;13.91;79.92
19128;BME280;9696;53.686;10.094;2022-09-16T08:22:37;100157.75;;;13.46;80.25
19128;BME280;9696;53.686;10.094;2022-09-16T08:25:07;100166.47;;;13.14;84.42
19128;BME280;9696;53.686;10.094;2022-09-16T08:27:36;100163.56;;;12.75;86.35
19128;BME280;9696;53.686;10.094;2022-09-16T08:30:06;100172.19;;;13.09;85.00
19128;BME280;9696;53.686;10.094;2022-09-16T08:32:36;100177.06;;;12.80;85.45
19128;BME280;9696;53.686;10.094;2022-09-16T08:35:11;100177.22;;;12.28;87.08
19128;BME280;9696;53.686;10.094;2022-09-16T08:37:58;100178.31;;;11.92;86.26
19128;BME280;9696;53.686;10.094;2022-09-16T08:40:33;100180.47;;;12.22;84.35
19128;BME280;9696;53.686;10.094;2022-09-16T08:43:10;100179.06;;;12.86;83.40
19128;BME280;9696;53.686;10.094;2022-09-16T08:45:47;100178.97;;;13.20;80.34
19128;BME280;9696;53.686;10.094;2022-09-16T08:48:30;100176.84;;;13.56;79.03
19128;BME280;9696;53.686;10.094;2022-09-16T08:51:02;100179.47;;;13.32;81.77
19128;BME280;9696;53.686;10.094;2022-09-16T08:53:37;100173.78;;;12.78;84.23
19128;BME280;9696;53.686;10.094;2022-09-16T08:56:13;100202.63;;;12.20;85.03
19128;BME280;9696;53.686;10.094;2022-09-16T08:58:45;100188.00;;;11.92;87.69
19128;BME280;9696;53.686;10.094;2022-09-16T09:01:19;100191.22;;;11.86;88.47
19128;BME280;9696;53.686;10.094;2022-09-16T09:03:51;100185.56;;;11.72;89.39
19128;BME280;9696;53.686;10.094;2022-09-16T09:06:30;100188.97;;;11.91;89.21
19128;BME280;9696;53.686;10.094;2022-09-16T09:09:14;100183.00;;;12.90;86.01
19128;BME280;9696;53.686;10.094;2022-09-16T09:11:55;100184.25;;;13.28;85.02
19128;BME280;9696;53.686;10.094;2022-09-16T09:14:34;100181.81;;;13.43;82.13
19128;BME280;9696;53.686;10.094;2022-09-16T09:17:08;100167.81;;;13.50;79.46
19128;BME280;9696;53.686;10.094;2022-09-16T09:19:54;100173.25;;;14.36;79.46
19128;BME280;9696;53.686;10.094;2022-09-16T09:22:32;100171.25;;;13.27;82.07
19128;BME280;9696;53.686;10.094;2022-09-16T09:25:20;100157.25;;;12.52;85.67
19128;BME280;9696;53.686;10.094;2022-09-16T09:27:58;100163.28;;;12.94;87.18
19128;BME280;9696;53.686;10.094;2022-09-16T09:30:32;100153.31;;;13.38;84.81
19128;BME280;9696;53.686;10.094;2022-09-16T09:33:13;100148.03;;;13.54;82.34
19128;BME280;9696;53.686;10.094;2022-09-16T09:36:29;100141.09;;;14.33;80.34
19128;BME280;9696;53.686;10.094;2022-09-16T09:39:22;100132.13;;;15.26;75.24
19128;BME280;9696;53.686;10.094;2022-09-16T09:42:04;100123.25;;;14.43;75.12
19128;BME280;9696;53.686;10.094;2022-09-16T09:44:49;100128.81;;;14.09;75.83
19128;BME280;9696;53.686;10.094;2022-09-16T09:47:24;100103.19;;;14.87;71.27
19128;BME280;9696;53.686;10.094;2022-09-16T09:49:56;100108.59;;;14.94;72.62
19128;BME280;9696;53.686;10.094;2022-09-16T09:52:31;100098.28;;;15.07;72.62
19128;BME280;9696;53.686;10.094;2022-09-16T09:55:16;100112.03;;;15.17;70.61
19128;BME280;9696;53.686;10.094;2022-09-16T09:57:58;100123.50;;;15.70;69.80
19128;BME280;9696;53.686;10.094;2022-09-16T10:00:29;100098.91;;;15.46;69.99
19128;BME280;9696;53.686;10.094;2022-09-16T10:03:04;100106.50;;;15.12;68.88
19128;BME280;9696;53.686;10.094;2022-09-16T10:05:34;100108.38;;;14.81;70.13
19128;BME280;9696;53.686;10.094;2022-09-16T10:08:08;100114.59;;;15.10;68.82
19128;BME280;9696;53.686;10.094;2022-09-16T10:10:47;100109.47;;;14.63;70.49
19128;BME280;9696;53.686;10.094;2022-09-16T10:13:19;100105.59;;;15.20;71.58
19128;BME280;9696;53.686;10.094;2022-09-16T10:15:49;100095.88;;;15.35;65.78
19128;BME280;9696;53.686;10.094;2022-09-16T10:18:25;100107.19;;;16.25;67.08
19128;BME280;9696;53.686;10.094;2022-09-16T10:21:03;100100.78;;;16.84;62.28
19128;BME280;9696;53.686;10.094;2022-09-16T10:23:33;100097.56;;;15.88;64.04
19128;BME280;9696;53.686;10.094;2022-09-16T10:26:19;100106.06;;;15.61;65.15
19128;BME280;9696;53.686;10.094;2022-09-16T10:28:58;100100.00;;;15.89;64.01
19128;BME280;9696;53.686;10.094;2022-09-16T10:31:30;100099.09;;;16.12;64.43
19128;BME280;9696;53.686;10.094;2022-09-16T10:34:03;100107.59;;;15.18;66.56
19128;BME280;9696;53.686;10.094;2022-09-16T10:36:34;100102.50;;;15.53;65.50
19128;BME280;9696;53.686;10.094;2022-09-16T10:39:04;100101.25;;;15.27;69.07
19128;BME280;9696;53.686;10.094;2022-09-16T10:41:39;100095.69;;;15.74;65.65
19128;BME280;9696;53.686;10.094;2022-09-16T10:44:16;100091.03;;;14.55;69.71
19128;BME280;9696;53.686;10.094;2022-09-16T10:46:53;100089.56;;;15.21;66.83
19128;BME280;9696;53.686;10.094;2022-09-16T10:49:31;100099.91;;;15.68;65.95
19128;BME280;9696;53.686;10.094;2022-09-16T10:52:13;100066.41;;;15.61;63.79
19128;BME280;9696;53.686;10.094;2022-09-16T10:54:43;100079.22;;;16.37;60.57
19128;BME280;9696;53.686;10.094;2022-09-16T10:57:25;100085.88;;;15.82;63.52
19128;BME280;9696;53.686;10.094;2022-09-16T10:59:59;100062.97;;;15.75;62.88
19128;BME280;9696;53.686;10.094;2022-09-16T11:02:49;100071.81;;;15.67;62.16
19128;BME280;9696;53.686;10.094;2022-09-16T11:05:28;100067.59;;;15.73;63.66
19128;BME280;9696;53.686;10.094;2022-09-16T11:08:05;100069.44;;;15.57;67.48
19128;BME280;9696;53.686;10.094;2022-09-16T11:10:43;100084.41;;;14.59;73.83
19128;BME280;9696;53.686;10.094;2022-09-16T11:13:32;100090.16;;;13.85;79.27
19128;BME280;9696;53.686;10.094;2022-09-16T11:16:19;100077.75;;;13.23;80.70
19128;BME280;9696;53.686;10.094;2022-09-16T11:18:56;100061.28;;;13.92;73.10
19128;BME280;9696;53.686;10.094;2022-09-16T11:24:50;100065.16;;;13.65;75.34
19128;BME280;9696;53.686;10.094;2022-09-16T11:27:33;100065.91;;;13.98;74.40
19128;BME280;9696;53.686;10.094;2022-09-16T11:30:10;100061.69;;;13.73;73.37
19128;BME280;9696;53.686;10.094;2022-09-16T11:32:58;100091.91;;;13.13;76.64
19128;BME280;9696;53.686;10.094;2022-09-16T11:35:54;100088.22;;;12.74;79.15
19128;BME280;9696;53.686;10.094;2022-09-16T11:38:31;100078.81;;;14.15;76.66
19128;BME280;9696;53.686;10.094;2022-09-16T11:41:17;100066.91;;;15.41;75.56
19128;BME280;9696;53.686;10.094;2022-09-16T11:43:59;100071.19;;;15.80;72.03
19128;BME280;9696;53.686;10.094;2022-09-16T11:46:36;100058.19;;;15.03;70.78
19128;BME280;9696;53.686;10.094;2022-09-16T11:49:35;100063.75;;;15.08;69.37
19128;BME280;9696;53.686;10.094;2022-09-16T11:52:26;100060.50;;;15.59;69.63
19128;BME280;9696;53.686;10.094;2022-09-16T11:55:11;100051.81;;;16.44;69.75
19128;BME280;9696;53.686;10.094;2022-09-16T11:57:49;100044.28;;;15.91;67.44
19128;BME280;9696;53.686;10.094;2022-09-16T12:00:20;100035.34;;;16.64;65.13
19128;BME280;9696;53.686;10.094;2022-09-16T12:02:54;100035.28;;;16.21;66.85
19128;BME280;9696;53.686;10.094;2022-09-16T12:05:29;100036.88;;;16.37;65.42
19128;BME280;9696;53.686;10.094;2022-09-16T12:08:05;100030.03;;;15.77;68.06
19128;BME280;9696;53.686;10.094;2022-09-16T12:10:41;100030.53;;;14.91;69.37
19128;BME280;9696;53.686;10.094;2022-09-16T12:13:14;100028.59;;;14.09;72.18
19128;BME280;9696;53.686;10.094;2022-09-16T12:15:47;100038.44;;;14.15;74.55
19128;BME280;9696;53.686;10.094;2022-09-16T12:18:22;100050.78;;;13.76;79.48
19128;BME280;9696;53.686;10.094;2022-09-16T12:21:01;100069.66;;;12.92;86.75
19128;BME280;9696;53.686;10.094;2022-09-16T12:23:37;100078.34;;;12.84;93.48
19128;BME280;9696;53.686;10.094;2022-09-16T12:26:11;100061.53;;;12.53;92.20
19128;BME280;9696;53.686;10.094;2022-09-16T12:28:45;100058.25;;;12.43;92.62
19128;BME280;9696;53.686;10.094;2022-09-16T12:31:22;100051.16;;;12.43;92.01
19128;BME280;9696;53.686;10.094;2022-09-16T12:33:57;100046.47;;;12.95;87.67
19128;BME280;9696;53.686;10.094;2022-09-16T12:36:32;100026.47;;;13.65;84.75
19128;BME280;9696;53.686;10.094;2022-09-16T12:39:03;100038.34;;;14.31;81.31
19128;BME280;9696;53.686;10.094;2022-09-16T12:41:50;100033.78;;;13.94;81.25
19128;BME280;9696;53.686;10.094;2022-09-16T12:44:39;100030.06;;;14.42;81.47
19128;BME280;9696;53.686;10.094;2022-09-16T12:47:37;100028.41;;;15.09;78.25
19128;BME280;9696;53.686;10.094;2022-09-16T12:50:36;100012.25;;;14.67;79.29
19128;BME280;9696;53.686;10.094;2022-09-16T12:56:26;100014.25;;;14.03;78.46
19128;BME280;9696;53.686;10.094;2022-09-16T12:59:14;100009.38;;;13.53;82.01
19128;BME280;9696;53.686;10.094;2022-09-16T13:01:50;100012.72;;;12.91;88.27
19128;BME280;9696;53.686;10.094;2022-09-16T13:04:29;100019.78;;;12.58;91.91
19128;BME280;9696;53.686;10.094;2022-09-16T13:07:00;100025.97;;;12.16;95.44
19128;BME280;9696;53.686;10.094;2022-09-16T13:09:33;100002.50;;;12.47;97.81
19128;BME280;9696;53.686;10.094;2022-09-16T13:12:18;100012.03;;;12.56;95.07
19128;BME280;9696;53.686;10.094;2022-09-16T13:15:20;100015.03;;;12.69;92.54
19128;BME280;9696;53.686;10.094;2022-09-16T13:17:50;100006.66;;;12.82;89.98
19128;BME280;9696;53.686;10.094;2022-09-16T13:20:24;100003.00;;;13.15;86.93
19128;BME280;9696;53.686;10.094;2022-09-16T13:23:04;100007.13;;;12.86;85.28
19128;BME280;9696;53.686;10.094;2022-09-16T13:25:45;100003.84;;;12.67;89.38
19128;BME280;9696;53.686;10.094;2022-09-16T13:28:25;100000.03;;;12.46;87.23
19128;BME280;9696;53.686;10.094;2022-09-16T13:30:55;99997.25;;;12.39;89.48
19128;BME280;9696;53.686;10.094;2022-09-16T13:33:26;99999.38;;;12.44;89.06
19128;BME280;9696;53.686;10.094;2022-09-16T13:36:30;99990.66;;;12.27;88.57
19128;BME280;9696;53.686;10.094;2022-09-16T13:39:01;100002.13;;;12.26;89.78